sensor_id;sensor_type;location;lat;lon;timestamp;temperature;humidity
52919;DHT22;38793;52.690;6.812;2022-07-09T00:00:23;17.20;99.90
52919;DHT22;38793;52.690;6.812;2022-07-09T00:02:49;17.20;99.90
52919;DHT22;38793;52.690;6.812;2022-07-09T00:05:14;17.20;99.90
52919;DHT22;38793;52.690;6.812;2022-07-09T00:07:40;17.20;99.90
52919;DHT22;38793;52.690;6.812;2022-07-09T00:10:06;17.20;99.90
52919;DHT22;38793;52.690;6.812;2022-07-09T00:12:32;17.20;99.90
52919;DHT22;38793;52.690;6.812;2022-07-09T00:14:57;17.20;99.90
52919;DHT22;38793;52.690;6.812;2022-07-09T00:17:23;17.10;99.90
52919;DHT22;38793;52.690;6.812;2022-07-09T00:19:48;17.10;99.90
52919;DHT22;38793;52.690;6.812;2022-07-09T00:22:14;17.10;99.90
52919;DHT22;38793;52.690;6.812;2022-07-09T00:24:40;17.10;99.90
52919;DHT22;38793;52.690;6.812;2022-07-09T00:27:05;17.10;99.90
52919;DHT22;38793;52.690;6.812;2022-07-09T00:29:31;17.10;99.90
52919;DHT22;38793;52.690;6.812;2022-07-09T00:31:57;17.10;99.90
52919;DHT22;38793;52.690;6.812;2022-07-09T00:34:22;17.10;99.90
52919;DHT22;38793;52.690;6.812;2022-07-09T00:36:48;17.00;99.90
52919;DHT22;38793;52.690;6.812;2022-07-09T00:39:13;17.10;99.90
52919;DHT22;38793;52.690;6.812;2022-07-09T00:41:39;17.00;99.90
52919;DHT22;38793;52.690;6.812;2022-07-09T00:44:04;17.00;99.90
52919;DHT22;38793;52.690;6.812;2022-07-09T00:46:30;17.00;99.90
52919;DHT22;38793;52.690;6.812;2022-07-09T00:48:55;17.00;99.90
52919;DHT22;38793;52.690;6.812;2022-07-09T00:51:21;17.00;99.90
52919;DHT22;38793;52.690;6.812;2022-07-09T00:53:48;17.10;99.90
52919;DHT22;38793;52.690;6.812;2022-07-09T00:56:15;17.00;99.90
52919;DHT22;38793;52.690;6.812;2022-07-09T00:58:44;17.10;99.90
52919;DHT22;38793;52.690;6.812;2022-07-09T01:01:10;17.10;99.90
52919;DHT22;38793;52.690;6.812;2022-07-09T01:03:35;17.10;99.90
52919;DHT22;38793;52.690;6.812;2022-07-09T01:06:01;17.10;99.90
52919;DHT22;38793;52.690;6.812;2022-07-09T01:08:27;17.10;99.90
52919;DHT22;38793;52.690;6.812;2022-07-09T01:10:53;17.10;99.90
52919;DHT22;38793;52.690;6.812;2022-07-09T01:13:19;17.10;99.90
52919;DHT22;38793;52.690;6.812;2022-07-09T01:15:45;17.20;99.90
52919;DHT22;38793;52.690;6.812;2022-07-09T01:18:12;17.20;99.90
52919;DHT22;38793;52.690;6.812;2022-07-09T01:20:38;17.20;99.90
52919;DHT22;38793;52.690;6.812;2022-07-09T01:23:03;17.20;99.90
52919;DHT22;38793;52.690;6.812;2022-07-09T01:25:42;17.20;99.90
52919;DHT22;38793;52.690;6.812;2022-07-09T01:28:11;17.20;99.90
52919;DHT22;38793;52.690;6.812;2022-07-09T01:30:38;17.20;99.90
52919;DHT22;38793;52.690;6.812;2022-07-09T01:33:05;17.30;99.90
52919;DHT22;38793;52.690;6.812;2022-07-09T01:35:30;17.20;99.90
52919;DHT22;38793;52.690;6.812;2022-07-09T01:37:56;17.20;99.90
52919;DHT22;38793;52.690;6.812;2022-07-09T01:40:22;17.20;99.90
52919;DHT22;38793;52.690;6.812;2022-07-09T01:42:48;17.20;99.90
52919;DHT22;38793;52.690;6.812;2022-07-09T01:45:14;17.20;99.90
52919;DHT22;38793;52.690;6.812;2022-07-09T01:47:41;17.20;99.90
52919;DHT22;38793;52.690;6.812;2022-07-09T01:50:06;17.10;99.90
52919;DHT22;38793;52.690;6.812;2022-07-09T01:52:32;17.10;99.90
52919;DHT22;38793;52.690;6.812;2022-07-09T01:54:58;17.10;99.90
52919;DHT22;38793;52.690;6.812;2022-07-09T01:57:24;17.10;99.90
52919;DHT22;38793;52.690;6.812;2022-07-09T01:59:49;17.10;99.90
52919;DHT22;38793;52.690;6.812;2022-07-09T02:02:15;17.10;99.90
52919;DHT22;38793;52.690;6.812;2022-07-09T02:04:40;17.10;99.90
52919;DHT22;38793;52.690;6.812;2022-07-09T02:07:06;17.10;99.90
52919;DHT22;38793;52.690;6.812;2022-07-09T02:09:32;17.10;99.90
52919;DHT22;38793;52.690;6.812;2022-07-09T02:11:57;17.10;99.90
52919;DHT22;38793;52.690;6.812;2022-07-09T02:14:23;17.10;99.90
52919;DHT22;38793;52.690;6.812;2022-07-09T02:16:48;17.10;99.90
52919;DHT22;38793;52.690;6.812;2022-07-09T02:19:14;17.10;99.90
52919;DHT22;38793;52.690;6.812;2022-07-09T02:21:40;17.10;99.90
52919;DHT22;38793;52.690;6.812;2022-07-09T02:24:06;17.10;99.90
52919;DHT22;38793;52.690;6.812;2022-07-09T02:26:32;17.10;99.90
52919;DHT22;38793;52.690;6.812;2022-07-09T02:28:58;17.10;99.90
52919;DHT22;38793;52.690;6.812;2022-07-09T02:31:25;17.10;99.90
52919;DHT22;38793;52.690;6.812;2022-07-09T02:33:51;17.10;99.90
52919;DHT22;38793;52.690;6.812;2022-07-09T02:36:17;17.10;99.90
52919;DHT22;38793;52.690;6.812;2022-07-09T02:38:43;17.10;99.90
52919;DHT22;38793;52.690;6.812;2022-07-09T02:41:08;17.10;99.90
52919;DHT22;38793;52.690;6.812;2022-07-09T02:43:34;17.10;99.90
52919;DHT22;38793;52.690;6.812;2022-07-09T02:46:00;17.10;99.90
52919;DHT22;38793;52.690;6.812;2022-07-09T02:48:26;17.10;99.90
52919;DHT22;38793;52.690;6.812;2022-07-09T02:50:52;17.10;99.90
52919;DHT22;38793;52.690;6.812;2022-07-09T02:53:19;17.10;99.90
52919;DHT22;38793;52.690;6.812;2022-07-09T02:55:45;17.10;99.90
52919;DHT22;38793;52.690;6.812;2022-07-09T02:58:11;17.10;99.90
52919;DHT22;38793;52.690;6.812;2022-07-09T03:00:37;17.10;99.90
52919;DHT22;38793;52.690;6.812;2022-07-09T03:03:05;17.10;99.90
52919;DHT22;38793;52.690;6.812;2022-07-09T03:05:31;17.10;99.90
52919;DHT22;38793;52.690;6.812;2022-07-09T03:07:56;17.10;99.90
52919;DHT22;38793;52.690;6.812;2022-07-09T03:10:22;17.10;99.90
52919;DHT22;38793;52.690;6.812;2022-07-09T03:12:48;17.00;99.90
52919;DHT22;38793;52.690;6.812;2022-07-09T03:15:13;17.10;99.90
52919;DHT22;38793;52.690;6.812;2022-07-09T03:17:40;17.10;99.90
52919;DHT22;38793;52.690;6.812;2022-07-09T03:20:06;17.00;99.90
52919;DHT22;38793;52.690;6.812;2022-07-09T03:22:32;17.00;99.90
52919;DHT22;38793;52.690;6.812;2022-07-09T03:24:57;17.00;99.90
52919;DHT22;38793;52.690;6.812;2022-07-09T03:27:23;17.00;99.90
52919;DHT22;38793;52.690;6.812;2022-07-09T03:29:49;17.00;99.90
52919;DHT22;38793;52.690;6.812;2022-07-09T03:32:14;17.00;99.90
52919;DHT22;38793;52.690;6.812;2022-07-09T03:34:40;17.00;99.90
52919;DHT22;38793;52.690;6.812;2022-07-09T03:37:05;17.00;99.90
52919;DHT22;38793;52.690;6.812;2022-07-09T03:39:31;17.00;99.90
52919;DHT22;38793;52.690;6.812;2022-07-09T03:41:57;16.90;99.90
52919;DHT22;38793;52.690;6.812;2022-07-09T03:44:22;17.00;99.90
52919;DHT22;38793;52.690;6.812;2022-07-09T03:46:48;16.90;99.90
52919;DHT22;38793;52.690;6.812;2022-07-09T03:49:13;16.90;99.90
52919;DHT22;38793;52.690;6.812;2022-07-09T03:51:39;17.00;99.90
52919;DHT22;38793;52.690;6.812;2022-07-09T03:54:05;17.00;99.90
52919;DHT22;38793;52.690;6.812;2022-07-09T03:56:30;17.00;99.90
52919;DHT22;38793;52.690;6.812;2022-07-09T03:58:56;16.90;99.90
52919;DHT22;38793;52.690;6.812;2022-07-09T04:01:21;16.90;99.90
52919;DHT22;38793;52.690;6.812;2022-07-09T04:03:47;16.90;99.90
52919;DHT22;38793;52.690;6.812;2022-07-09T04:06:12;16.90;99.90
52919;DHT22;38793;52.690;6.812;2022-07-09T04:08:38;16.90;99.90
52919;DHT22;38793;52.690;6.812;2022-07-09T04:11:04;16.80;99.90
52919;DHT22;38793;52.690;6.812;2022-07-09T04:13:29;16.80;99.90
52919;DHT22;38793;52.690;6.812;2022-07-09T04:15:55;16.80;99.90
52919;DHT22;38793;52.690;6.812;2022-07-09T04:18:20;16.80;99.90
52919;DHT22;38793;52.690;6.812;2022-07-09T04:20:46;16.80;99.90
52919;DHT22;38793;52.690;6.812;2022-07-09T04:23:11;16.80;99.90
52919;DHT22;38793;52.690;6.812;2022-07-09T04:25:37;16.90;99.90
52919;DHT22;38793;52.690;6.812;2022-07-09T04:28:03;16.80;99.90
52919;DHT22;38793;52.690;6.812;2022-07-09T04:30:30;16.80;99.90
52919;DHT22;38793;52.690;6.812;2022-07-09T04:32:56;16.80;99.90
52919;DHT22;38793;52.690;6.812;2022-07-09T04:35:22;16.80;99.90
52919;DHT22;38793;52.690;6.812;2022-07-09T04:37:47;16.90;99.90
52919;DHT22;38793;52.690;6.812;2022-07-09T04:40:13;16.90;99.90
52919;DHT22;38793;52.690;6.812;2022-07-09T04:42:38;16.80;99.90
52919;DHT22;38793;52.690;6.812;2022-07-09T04:45:04;16.90;99.90
52919;DHT22;38793;52.690;6.812;2022-07-09T04:47:30;16.90;99.90
52919;DHT22;38793;52.690;6.812;2022-07-09T04:49:55;16.90;99.90
52919;DHT22;38793;52.690;6.812;2022-07-09T04:52:21;16.90;99.90
52919;DHT22;38793;52.690;6.812;2022-07-09T04:54:47;16.90;99.90
52919;DHT22;38793;52.690;6.812;2022-07-09T04:57:12;16.90;99.90
52919;DHT22;38793;52.690;6.812;2022-07-09T04:59:38;16.90;99.90
52919;DHT22;38793;52.690;6.812;2022-07-09T05:02:04;16.90;99.90
52919;DHT22;38793;52.690;6.812;2022-07-09T05:04:29;16.90;99.90
52919;DHT22;38793;52.690;6.812;2022-07-09T05:06:56;17.00;99.90
52919;DHT22;38793;52.690;6.812;2022-07-09T05:09:21;17.00;99.90
52919;DHT22;38793;52.690;6.812;2022-07-09T05:11:47;17.00;99.90
52919;DHT22;38793;52.690;6.812;2022-07-09T05:14:13;17.00;99.90
52919;DHT22;38793;52.690;6.812;2022-07-09T05:16:39;17.00;99.90
52919;DHT22;38793;52.690;6.812;2022-07-09T05:19:10;17.00;99.90
52919;DHT22;38793;52.690;6.812;2022-07-09T05:21:36;17.00;99.90
52919;DHT22;38793;52.690;6.812;2022-07-09T05:24:01;17.00;99.90
52919;DHT22;38793;52.690;6.812;2022-07-09T05:26:27;17.10;99.90
52919;DHT22;38793;52.690;6.812;2022-07-09T05:28:55;17.10;99.90
52919;DHT22;38793;52.690;6.812;2022-07-09T05:31:20;17.10;99.90
52919;DHT22;38793;52.690;6.812;2022-07-09T05:33:46;17.20;99.90
52919;DHT22;38793;52.690;6.812;2022-07-09T05:36:13;17.20;99.90
52919;DHT22;38793;52.690;6.812;2022-07-09T05:38:38;17.20;99.90
52919;DHT22;38793;52.690;6.812;2022-07-09T05:41:04;17.20;99.90
52919;DHT22;38793;52.690;6.812;2022-07-09T05:43:30;17.20;99.90
52919;DHT22;38793;52.690;6.812;2022-07-09T05:45:55;17.20;99.90
52919;DHT22;38793;52.690;6.812;2022-07-09T05:48:21;17.30;99.90
52919;DHT22;38793;52.690;6.812;2022-07-09T05:50:46;17.30;99.90
52919;DHT22;38793;52.690;6.812;2022-07-09T05:53:12;17.30;99.90
52919;DHT22;38793;52.690;6.812;2022-07-09T05:55:38;17.30;99.90
52919;DHT22;38793;52.690;6.812;2022-07-09T05:58:03;17.40;99.90
52919;DHT22;38793;52.690;6.812;2022-07-09T06:00:29;17.40;99.90
52919;DHT22;38793;52.690;6.812;2022-07-09T06:02:55;17.40;99.90
52919;DHT22;38793;52.690;6.812;2022-07-09T06:05:20;17.40;99.90
52919;DHT22;38793;52.690;6.812;2022-07-09T06:07:46;17.40;99.90
52919;DHT22;38793;52.690;6.812;2022-07-09T06:10:12;17.40;99.90
52919;DHT22;38793;52.690;6.812;2022-07-09T06:12:39;17.40;99.90
52919;DHT22;38793;52.690;6.812;2022-07-09T06:15:06;17.40;99.90
52919;DHT22;38793;52.690;6.812;2022-07-09T06:17:32;17.40;99.90
52919;DHT22;38793;52.690;6.812;2022-07-09T06:19:57;17.40;99.90
52919;DHT22;38793;52.690;6.812;2022-07-09T06:22:23;17.50;99.90
52919;DHT22;38793;52.690;6.812;2022-07-09T06:24:48;17.50;99.90
52919;DHT22;38793;52.690;6.812;2022-07-09T06:27:14;17.60;99.90
52919;DHT22;38793;52.690;6.812;2022-07-09T06:29:39;17.60;99.90
52919;DHT22;38793;52.690;6.812;2022-07-09T06:32:05;17.60;99.90
52919;DHT22;38793;52.690;6.812;2022-07-09T06:34:31;17.60;99.90
52919;DHT22;38793;52.690;6.812;2022-07-09T06:36:57;17.70;99.90
52919;DHT22;38793;52.690;6.812;2022-07-09T06:39:22;17.70;99.90
52919;DHT22;38793;52.690;6.812;2022-07-09T06:42:07;17.70;99.90
52919;DHT22;38793;52.690;6.812;2022-07-09T06:44:33;17.80;99.90
52919;DHT22;38793;52.690;6.812;2022-07-09T06:46:59;17.80;99.90
52919;DHT22;38793;52.690;6.812;2022-07-09T06:49:25;17.80;99.90
52919;DHT22;38793;52.690;6.812;2022-07-09T06:51:50;17.90;99.90
52919;DHT22;38793;52.690;6.812;2022-07-09T06:54:16;17.90;99.90
52919;DHT22;38793;52.690;6.812;2022-07-09T06:56:42;17.90;99.90
52919;DHT22;38793;52.690;6.812;2022-07-09T06:59:07;18.00;99.90
52919;DHT22;38793;52.690;6.812;2022-07-09T07:01:33;18.00;99.90
52919;DHT22;38793;52.690;6.812;2022-07-09T07:03:58;18.00;99.90
52919;DHT22;38793;52.690;6.812;2022-07-09T07:06:24;18.00;99.90
52919;DHT22;38793;52.690;6.812;2022-07-09T07:08:49;18.00;99.90
52919;DHT22;38793;52.690;6.812;2022-07-09T07:11:15;18.10;99.90
52919;DHT22;38793;52.690;6.812;2022-07-09T07:13:40;18.10;99.90
52919;DHT22;38793;52.690;6.812;2022-07-09T07:16:07;18.10;99.90
52919;DHT22;38793;52.690;6.812;2022-07-09T07:18:32;18.10;99.90
52919;DHT22;38793;52.690;6.812;2022-07-09T07:20:58;18.20;99.90
52919;DHT22;38793;52.690;6.812;2022-07-09T07:23:23;18.20;99.90
52919;DHT22;38793;52.690;6.812;2022-07-09T07:25:49;18.20;99.90
52919;DHT22;38793;52.690;6.812;2022-07-09T07:28:14;18.30;99.90
52919;DHT22;38793;52.690;6.812;2022-07-09T07:30:40;18.30;99.90
52919;DHT22;38793;52.690;6.812;2022-07-09T07:33:05;18.30;99.90
52919;DHT22;38793;52.690;6.812;2022-07-09T07:35:31;18.40;99.90
52919;DHT22;38793;52.690;6.812;2022-07-09T07:37:57;18.40;99.90
52919;DHT22;38793;52.690;6.812;2022-07-09T07:40:24;18.50;99.90
52919;DHT22;38793;52.690;6.812;2022-07-09T07:42:50;18.50;99.90
52919;DHT22;38793;52.690;6.812;2022-07-09T07:45:16;18.50;99.90
52919;DHT22;38793;52.690;6.812;2022-07-09T07:47:41;18.60;99.90
52919;DHT22;38793;52.690;6.812;2022-07-09T07:50:07;18.60;99.90
52919;DHT22;38793;52.690;6.812;2022-07-09T07:52:33;18.60;99.90
52919;DHT22;38793;52.690;6.812;2022-07-09T07:54:59;18.60;99.90
52919;DHT22;38793;52.690;6.812;2022-07-09T07:57:24;18.60;99.90
52919;DHT22;38793;52.690;6.812;2022-07-09T07:59:50;18.60;99.90
52919;DHT22;38793;52.690;6.812;2022-07-09T08:02:15;18.60;99.90
52919;DHT22;38793;52.690;6.812;2022-07-09T08:04:41;18.60;99.90
52919;DHT22;38793;52.690;6.812;2022-07-09T08:07:07;18.70;99.90
52919;DHT22;38793;52.690;6.812;2022-07-09T08:09:33;18.70;99.90
52919;DHT22;38793;52.690;6.812;2022-07-09T08:12:00;18.70;99.90
52919;DHT22;38793;52.690;6.812;2022-07-09T08:14:26;18.70;99.90
52919;DHT22;38793;52.690;6.812;2022-07-09T08:16:51;18.70;99.90
52919;DHT22;38793;52.690;6.812;2022-07-09T08:19:17;18.70;99.90
52919;DHT22;38793;52.690;6.812;2022-07-09T08:21:44;18.70;99.90
52919;DHT22;38793;52.690;6.812;2022-07-09T08:24:09;18.70;99.90
52919;DHT22;38793;52.690;6.812;2022-07-09T08:26:35;18.70;99.90
52919;DHT22;38793;52.690;6.812;2022-07-09T08:29:00;18.70;99.90
52919;DHT22;38793;52.690;6.812;2022-07-09T08:31:26;18.70;99.90
52919;DHT22;38793;52.690;6.812;2022-07-09T08:33:52;18.80;99.90
52919;DHT22;38793;52.690;6.812;2022-07-09T08:36:18;18.80;99.90
52919;DHT22;38793;52.690;6.812;2022-07-09T08:38:44;18.90;99.90
52919;DHT22;38793;52.690;6.812;2022-07-09T08:41:10;18.90;99.90
52919;DHT22;38793;52.690;6.812;2022-07-09T08:43:37;19.00;99.90
52919;DHT22;38793;52.690;6.812;2022-07-09T08:46:04;19.00;99.90
52919;DHT22;38793;52.690;6.812;2022-07-09T08:48:33;19.10;99.90
52919;DHT22;38793;52.690;6.812;2022-07-09T08:51:00;19.20;99.90
52919;DHT22;38793;52.690;6.812;2022-07-09T08:53:27;19.30;99.90
52919;DHT22;38793;52.690;6.812;2022-07-09T08:55:56;19.40;99.90
52919;DHT22;38793;52.690;6.812;2022-07-09T08:58:22;19.50;99.90
52919;DHT22;38793;52.690;6.812;2022-07-09T09:00:48;19.60;99.90
52919;DHT22;38793;52.690;6.812;2022-07-09T09:03:15;19.60;99.90
52919;DHT22;38793;52.690;6.812;2022-07-09T09:05:41;19.70;99.90
52919;DHT22;38793;52.690;6.812;2022-07-09T09:08:17;19.70;99.90
52919;DHT22;38793;52.690;6.812;2022-07-09T09:10:48;19.80;99.90
52919;DHT22;38793;52.690;6.812;2022-07-09T09:13:15;19.80;99.90
52919;DHT22;38793;52.690;6.812;2022-07-09T09:15:44;19.80;99.90
52919;DHT22;38793;52.690;6.812;2022-07-09T09:18:10;19.80;99.90
52919;DHT22;38793;52.690;6.812;2022-07-09T09:20:36;19.80;99.90
52919;DHT22;38793;52.690;6.812;2022-07-09T09:23:01;19.90;99.90
52919;DHT22;38793;52.690;6.812;2022-07-09T09:25:29;19.90;99.90
52919;DHT22;38793;52.690;6.812;2022-07-09T09:27:57;19.90;99.90
52919;DHT22;38793;52.690;6.812;2022-07-09T09:30:24;20.00;99.90
52919;DHT22;38793;52.690;6.812;2022-07-09T09:33:01;20.10;99.90
52919;DHT22;38793;52.690;6.812;2022-07-09T09:35:29;20.20;99.90
52919;DHT22;38793;52.690;6.812;2022-07-09T09:37:55;20.30;99.90
52919;DHT22;38793;52.690;6.812;2022-07-09T09:40:24;20.30;99.90
52919;DHT22;38793;52.690;6.812;2022-07-09T09:42:51;20.50;99.90
52919;DHT22;38793;52.690;6.812;2022-07-09T09:45:18;20.50;99.90
52919;DHT22;38793;52.690;6.812;2022-07-09T09:47:50;20.60;99.90
52919;DHT22;38793;52.690;6.812;2022-07-09T09:50:21;20.60;99.90
52919;DHT22;38793;52.690;6.812;2022-07-09T09:52:47;20.70;99.90
52919;DHT22;38793;52.690;6.812;2022-07-09T09:55:15;20.70;99.90
52919;DHT22;38793;52.690;6.812;2022-07-09T09:57:41;20.80;99.90
52919;DHT22;38793;52.690;6.812;2022-07-09T10:00:07;20.90;99.90
52919;DHT22;38793;52.690;6.812;2022-07-09T10:02:34;21.00;99.90
52919;DHT22;38793;52.690;6.812;2022-07-09T10:05:01;21.00;99.90
52919;DHT22;38793;52.690;6.812;2022-07-09T10:07:27;21.00;99.90
52919;DHT22;38793;52.690;6.812;2022-07-09T10:09:57;20.90;99.90
52919;DHT22;38793;52.690;6.812;2022-07-09T10:12:29;21.00;99.90
52919;DHT22;38793;52.690;6.812;2022-07-09T10:14:56;21.00;99.90
52919;DHT22;38793;52.690;6.812;2022-07-09T10:17:24;21.10;99.90
52919;DHT22;38793;52.690;6.812;2022-07-09T10:19:54;21.10;99.90
52919;DHT22;38793;52.690;6.812;2022-07-09T10:22:40;21.10;99.90
52919;DHT22;38793;52.690;6.812;2022-07-09T10:25:13;21.10;99.90
52919;DHT22;38793;52.690;6.812;2022-07-09T10:27:48;21.10;99.90
52919;DHT22;38793;52.690;6.812;2022-07-09T10:30:28;21.00;99.90
52919;DHT22;38793;52.690;6.812;2022-07-09T10:33:13;21.00;99.90
52919;DHT22;38793;52.690;6.812;2022-07-09T10:35:52;21.10;99.90
52919;DHT22;38793;52.690;6.812;2022-07-09T10:38:18;21.20;99.90
52919;DHT22;38793;52.690;6.812;2022-07-09T10:40:55;21.20;99.90
52919;DHT22;38793;52.690;6.812;2022-07-09T10:43:37;21.30;99.90
52919;DHT22;38793;52.690;6.812;2022-07-09T10:46:09;21.40;99.90
52919;DHT22;38793;52.690;6.812;2022-07-09T10:48:36;21.30;99.90
52919;DHT22;38793;52.690;6.812;2022-07-09T10:51:02;21.30;99.90
52919;DHT22;38793;52.690;6.812;2022-07-09T10:53:29;21.40;99.90
52919;DHT22;38793;52.690;6.812;2022-07-09T10:55:55;21.40;99.90
52919;DHT22;38793;52.690;6.812;2022-07-09T10:58:21;21.40;99.90
52919;DHT22;38793;52.690;6.812;2022-07-09T11:00:56;21.40;99.90
52919;DHT22;38793;52.690;6.812;2022-07-09T11:03:26;21.40;99.90
52919;DHT22;38793;52.690;6.812;2022-07-09T11:05:52;21.50;99.90
52919;DHT22;38793;52.690;6.812;2022-07-09T11:08:17;21.50;99.90
52919;DHT22;38793;52.690;6.812;2022-07-09T11:10:43;21.40;99.90
52919;DHT22;38793;52.690;6.812;2022-07-09T11:13:09;21.50;99.90
52919;DHT22;38793;52.690;6.812;2022-07-09T11:15:35;21.50;99.90
52919;DHT22;38793;52.690;6.812;2022-07-09T11:18:11;21.50;99.90
52919;DHT22;38793;52.690;6.812;2022-07-09T11:20:43;21.60;99.90
52919;DHT22;38793;52.690;6.812;2022-07-09T11:23:11;21.60;99.90
52919;DHT22;38793;52.690;6.812;2022-07-09T11:25:37;21.50;99.90
52919;DHT22;38793;52.690;6.812;2022-07-09T11:28:03;21.40;99.90
52919;DHT22;38793;52.690;6.812;2022-07-09T11:30:29;21.30;99.90
52919;DHT22;38793;52.690;6.812;2022-07-09T11:32:55;21.20;99.90
52919;DHT22;38793;52.690;6.812;2022-07-09T11:37:54;21.30;99.90
52919;DHT22;38793;52.690;6.812;2022-07-09T11:40:20;21.30;99.90
52919;DHT22;38793;52.690;6.812;2022-07-09T11:42:46;21.40;99.90
52919;DHT22;38793;52.690;6.812;2022-07-09T11:45:12;21.60;99.90
52919;DHT22;38793;52.690;6.812;2022-07-09T11:47:40;21.70;99.90
52919;DHT22;38793;52.690;6.812;2022-07-09T11:50:09;21.70;99.90
52919;DHT22;38793;52.690;6.812;2022-07-09T11:52:36;21.80;99.90
52919;DHT22;38793;52.690;6.812;2022-07-09T11:55:06;21.80;99.90
52919;DHT22;38793;52.690;6.812;2022-07-09T11:57:34;21.80;99.90
52919;DHT22;38793;52.690;6.812;2022-07-09T12:00:05;21.70;99.90
52919;DHT22;38793;52.690;6.812;2022-07-09T12:02:38;21.70;99.90
52919;DHT22;38793;52.690;6.812;2022-07-09T12:05:08;21.70;99.90
52919;DHT22;38793;52.690;6.812;2022-07-09T12:07:34;21.80;99.90
52919;DHT22;38793;52.690;6.812;2022-07-09T12:10:09;21.80;99.90
52919;DHT22;38793;52.690;6.812;2022-07-09T12:12:35;21.90;99.90
52919;DHT22;38793;52.690;6.812;2022-07-09T12:15:03;21.90;99.90
52919;DHT22;38793;52.690;6.812;2022-07-09T12:17:30;21.80;99.90
52919;DHT22;38793;52.690;6.812;2022-07-09T12:19:57;21.80;99.90
52919;DHT22;38793;52.690;6.812;2022-07-09T12:22:23;21.80;99.90
52919;DHT22;38793;52.690;6.812;2022-07-09T12:24:50;21.80;99.90
52919;DHT22;38793;52.690;6.812;2022-07-09T12:27:16;21.70;99.90
52919;DHT22;38793;52.690;6.812;2022-07-09T12:29:41;21.70;99.90
52919;DHT22;38793;52.690;6.812;2022-07-09T12:32:07;21.70;99.90
52919;DHT22;38793;52.690;6.812;2022-07-09T12:34:33;21.60;99.90
52919;DHT22;38793;52.690;6.812;2022-07-09T12:36:58;21.50;99.90
52919;DHT22;38793;52.690;6.812;2022-07-09T12:39:24;21.40;99.90
52919;DHT22;38793;52.690;6.812;2022-07-09T12:41:50;21.30;99.90
52919;DHT22;38793;52.690;6.812;2022-07-09T12:44:15;21.30;99.90
52919;DHT22;38793;52.690;6.812;2022-07-09T12:46:41;21.30;99.90
52919;DHT22;38793;52.690;6.812;2022-07-09T12:49:07;21.30;99.90
52919;DHT22;38793;52.690;6.812;2022-07-09T12:51:33;21.20;99.90
52919;DHT22;38793;52.690;6.812;2022-07-09T12:53:59;21.20;99.90
52919;DHT22;38793;52.690;6.812;2022-07-09T12:56:24;21.20;99.90
52919;DHT22;38793;52.690;6.812;2022-07-09T12:58:50;21.20;99.90
52919;DHT22;38793;52.690;6.812;2022-07-09T13:01:16;21.30;99.90
52919;DHT22;38793;52.690;6.812;2022-07-09T13:03:41;21.30;99.90
52919;DHT22;38793;52.690;6.812;2022-07-09T13:06:07;21.40;99.90
52919;DHT22;38793;52.690;6.812;2022-07-09T13:08:53;21.40;99.90
52919;DHT22;38793;52.690;6.812;2022-07-09T13:11:18;21.40;99.90
52919;DHT22;38793;52.690;6.812;2022-07-09T13:13:44;21.40;99.50
52919;DHT22;38793;52.690;6.812;2022-07-09T13:16:09;21.30;99.90
52919;DHT22;38793;52.690;6.812;2022-07-09T13:18:35;21.30;99.90
52919;DHT22;38793;52.690;6.812;2022-07-09T13:21:00;21.30;99.90
52919;DHT22;38793;52.690;6.812;2022-07-09T13:23:25;21.30;99.90
52919;DHT22;38793;52.690;6.812;2022-07-09T13:25:51;21.30;99.90
52919;DHT22;38793;52.690;6.812;2022-07-09T13:28:17;21.30;98.60
52919;DHT22;38793;52.690;6.812;2022-07-09T13:30:42;21.20;98.80
52919;DHT22;38793;52.690;6.812;2022-07-09T13:33:08;21.20;98.30
52919;DHT22;38793;52.690;6.812;2022-07-09T13:35:33;21.10;99.10
52919;DHT22;38793;52.690;6.812;2022-07-09T13:37:59;21.20;98.50
52919;DHT22;38793;52.690;6.812;2022-07-09T13:40:25;21.20;98.70
52919;DHT22;38793;52.690;6.812;2022-07-09T13:42:50;21.30;98.20
52919;DHT22;38793;52.690;6.812;2022-07-09T13:45:16;21.40;98.20
52919;DHT22;38793;52.690;6.812;2022-07-09T13:47:41;21.30;97.30
52919;DHT22;38793;52.690;6.812;2022-07-09T13:50:07;21.40;97.90
52919;DHT22;38793;52.690;6.812;2022-07-09T13:52:32;21.40;97.80
52919;DHT22;38793;52.690;6.812;2022-07-09T13:54:58;21.40;97.90
52919;DHT22;38793;52.690;6.812;2022-07-09T13:57:24;21.50;97.20
52919;DHT22;38793;52.690;6.812;2022-07-09T13:59:49;21.60;97.70
52919;DHT22;38793;52.690;6.812;2022-07-09T14:02:15;21.60;97.40
52919;DHT22;38793;52.690;6.812;2022-07-09T14:04:40;21.60;97.10
52919;DHT22;38793;52.690;6.812;2022-07-09T14:07:06;21.50;96.40
52919;DHT22;38793;52.690;6.812;2022-07-09T14:09:32;21.50;96.90
52919;DHT22;38793;52.690;6.812;2022-07-09T14:11:57;21.40;96.70
52919;DHT22;38793;52.690;6.812;2022-07-09T14:14:23;21.30;97.10
52919;DHT22;38793;52.690;6.812;2022-07-09T14:16:48;21.30;97.30
52919;DHT22;38793;52.690;6.812;2022-07-09T14:19:14;21.30;97.50
52919;DHT22;38793;52.690;6.812;2022-07-09T14:21:39;21.30;97.40
52919;DHT22;38793;52.690;6.812;2022-07-09T14:24:05;21.40;96.80
52919;DHT22;38793;52.690;6.812;2022-07-09T14:26:30;21.40;96.70
52919;DHT22;38793;52.690;6.812;2022-07-09T14:28:56;21.40;96.30
52919;DHT22;38793;52.690;6.812;2022-07-09T14:31:22;21.30;96.40
52919;DHT22;38793;52.690;6.812;2022-07-09T14:33:47;21.30;96.70
52919;DHT22;38793;52.690;6.812;2022-07-09T14:36:13;21.20;97.00
52919;DHT22;38793;52.690;6.812;2022-07-09T14:38:38;21.20;96.70
52919;DHT22;38793;52.690;6.812;2022-07-09T14:41:04;21.20;96.60
52919;DHT22;38793;52.690;6.812;2022-07-09T14:43:29;21.20;96.40
52919;DHT22;38793;52.690;6.812;2022-07-09T14:45:55;21.20;97.00
52919;DHT22;38793;52.690;6.812;2022-07-09T14:48:21;21.20;96.30
52919;DHT22;38793;52.690;6.812;2022-07-09T14:50:46;21.20;97.20
52919;DHT22;38793;52.690;6.812;2022-07-09T14:53:12;21.20;96.10
52919;DHT22;38793;52.690;6.812;2022-07-09T14:55:37;21.20;96.80
52919;DHT22;38793;52.690;6.812;2022-07-09T14:58:03;21.10;96.10
52919;DHT22;38793;52.690;6.812;2022-07-09T15:00:28;21.10;96.20
52919;DHT22;38793;52.690;6.812;2022-07-09T15:02:54;21.00;95.80
52919;DHT22;38793;52.690;6.812;2022-07-09T15:05:20;20.80;96.50
52919;DHT22;38793;52.690;6.812;2022-07-09T15:07:45;20.70;96.10
52919;DHT22;38793;52.690;6.812;2022-07-09T15:10:11;20.70;96.70
52919;DHT22;38793;52.690;6.812;2022-07-09T15:12:36;20.60;96.40
52919;DHT22;38793;52.690;6.812;2022-07-09T15:15:02;20.60;96.70
52919;DHT22;38793;52.690;6.812;2022-07-09T15:17:28;20.60;96.50
52919;DHT22;38793;52.690;6.812;2022-07-09T15:19:53;20.50;96.90
52919;DHT22;38793;52.690;6.812;2022-07-09T15:22:19;20.50;96.50
52919;DHT22;38793;52.690;6.812;2022-07-09T15:24:44;20.40;96.50
52919;DHT22;38793;52.690;6.812;2022-07-09T15:27:10;20.40;96.40